Time;durP1;ratioP1;P1;durP2;ratioP2;P2;SDS_P1;SDS_P2;PMS_P1;PMS_P2;Temp;Humidity;BMP_temperature;BMP_pressure;BME280_temperature;BME280_humidity;BME280_pressure;Samples;Min_cycle;Max_cycle;Signal;HPM_P1;HPM_P2
2022/07/18 00:00:23;;;;;;;6.05;4.28;;;;;;;15.90;nan;99420.66;5054617;28;20051;-75
2022/07/18 00:02:48;;;;;;;9.95;4.55;;;;;;;15.89;nan;99419.78;5055870;28;20514;-74
2022/07/18 00:05:13;;;;;;;6.55;4.25;;;;;;;15.89;nan;99422.47;5004532;28;20502;-67
2022/07/18 00:07:37;;;;;;;7.55;4.90;;;;;;;15.88;nan;99425.31;5053884;28;20039;-69
2022/07/18 00:10:03;;;;;;;8.95;4.53;;;;;;;15.87;nan;99418.25;5039126;28;20036;-73
2022/07/18 00:12:28;;;;;;;12.18;4.40;;;;;;;15.87;nan;99415.56;5057966;28;20517;-70
2022/07/18 00:14:53;;;;;;;7.90;4.80;;;;;;;15.87;nan;99423.63;5057344;28;20075;-73
2022/07/18 00:17:17;;;;;;;8.60;4.85;;;;;;;15.86;nan;99416.53;5058410;28;20457;-72
2022/07/18 00:19:42;;;;;;;7.75;4.80;;;;;;;15.85;nan;99421.06;5057417;28;20070;-72
2022/07/18 00:22:07;;;;;;;7.35;5.00;;;;;;;15.84;nan;99421.22;5022313;28;20143;-72
2022/07/18 00:24:33;;;;;;;8.05;4.70;;;;;;;15.83;nan;99416.84;5039317;28;20044;-71
2022/07/18 00:26:58;;;;;;;9.23;5.43;;;;;;;15.81;nan;99416.13;5039124;28;20044;-69
2022/07/18 00:29:23;;;;;;;9.55;5.15;;;;;;;15.80;nan;99406.41;5057840;28;20804;-74
2022/07/18 00:31:48;;;;;;;7.07;5.00;;;;;;;15.79;nan;99416.31;5057537;28;20421;-72
2022/07/18 00:34:13;;;;;;;7.80;5.53;;;;;;;15.78;nan;99416.44;5057516;28;20126;-73
2022/07/18 00:36:38;;;;;;;7.20;5.45;;;;;;;15.78;nan;99419.13;5057694;28;20051;-72
2022/07/18 00:39:03;;;;;;;10.90;6.40;;;;;;;15.78;nan;99416.44;5056714;28;20071;-72
2022/07/18 00:41:28;;;;;;;7.65;5.97;;;;;;;15.78;nan;99422.69;5057099;28;20530;-73
2022/07/18 00:43:53;;;;;;;10.68;6.40;;;;;;;15.78;nan;99421.81;5018871;28;20395;-73
2022/07/18 00:46:25;;;;;;;10.68;5.53;;;;;;;15.84;nan;99421.22;5036884;28;20102;-67
2022/07/18 00:48:51;;;;;;;7.43;5.63;;;;;;;15.82;nan;99424.06;5036722;28;20044;-66
2022/07/18 00:51:16;;;;;;;9.50;6.20;;;;;;;15.83;nan;99416.84;5036709;28;20044;-71
2022/07/18 00:53:41;;;;;;;9.68;6.10;;;;;;;15.84;nan;99411.31;5035442;28;20044;-67
2022/07/18 00:56:06;;;;;;;9.00;5.63;;;;;;;15.85;nan;99412.16;5036748;28;20040;-64
2022/07/18 00:58:31;;;;;;;10.50;6.22;;;;;;;15.84;nan;99411.31;5038378;28;20056;-63
2022/07/18 01:03:40;;;;;;;10.82;6.35;;;;;;;15.84;nan;99419.38;5018474;28;20044;-65
2022/07/18 01:06:05;;;;;;;10.60;5.63;;;;;;;15.85;nan;99413.00;5036784;28;20133;-64
2022/07/18 01:08:29;;;;;;;18.75;7.47;;;;;;;15.84;nan;99418.53;5021573;28;20044;-63
2022/07/18 01:10:54;;;;;;;9.63;5.68;;;;;;;15.85;nan;99412.16;5042399;28;20502;-65
2022/07/18 01:13:20;;;;;;;14.82;6.03;;;;;;;15.86;nan;99411.16;5056078;28;20127;-71
2022/07/18 01:15:44;;;;;;;14.13;6.32;;;;;;;15.86;nan;99409.34;5056290;28;20048;-70
2022/07/18 01:18:09;;;;;;;12.50;6.65;;;;;;;15.87;nan;99411.03;5056374;28;20047;-71
2022/07/18 01:20:35;;;;;;;12.13;5.22;;;;;;;15.88;nan;99411.88;5037760;28;20044;-75
2022/07/18 01:22:59;;;;;;;10.30;5.30;;;;;;;15.89;nan;99411.72;5055843;28;20043;-71
2022/07/18 01:25:24;;;;;;;10.95;5.72;;;;;;;15.90;nan;99409.88;5056301;28;20047;-71
2022/07/18 01:27:49;;;;;;;7.05;4.72;;;;;;;15.90;nan;99412.59;5038172;28;20878;-72
2022/07/18 01:30:14;;;;;;;9.45;5.18;;;;;;;15.92;nan;99407.88;5037300;28;20059;-70
2022/07/18 01:32:39;;;;;;;7.25;5.05;;;;;;;15.91;nan;99400.84;5038027;28;20085;-70
2022/07/18 01:35:04;;;;;;;8.45;5.18;;;;;;;15.94;nan;99405.88;5056138;28;20085;-71
2022/07/18 01:37:29;;;;;;;8.00;4.70;;;;;;;15.93;nan;99406.88;5055659;28;20119;-71
2022/07/18 01:39:54;;;;;;;9.45;5.57;;;;;;;15.95;nan;99402.22;5055724;28;20135;-70
2022/07/18 01:42:19;;;;;;;7.57;4.63;;;;;;;15.95;nan;99404.91;5055828;28;20031;-74
2022/07/18 01:44:45;;;;;;;10.77;5.65;;;;;;;15.96;nan;99403.91;5055755;28;20040;-67
2022/07/18 01:47:11;;;;;;;14.07;4.38;;;;;;;15.96;nan;99401.22;5055643;28;20047;-65
2022/07/18 01:49:37;;;;;;;7.75;5.38;;;;;;;15.97;nan;99402.91;5054914;28;20036;-66
2022/07/18 01:52:03;;;;;;;7.32;4.43;;;;;;;15.98;nan;99405.44;5055848;28;20055;-72
2022/07/18 01:54:30;;;;;;;11.43;5.15;;;;;;;15.98;nan;99396.53;5055853;28;20043;-70
2022/07/18 01:56:56;;;;;;;6.72;4.25;;;;;;;15.97;nan;99405.59;5072360;28;20044;-66
2022/07/18 01:59:21;;;;;;;8.25;4.30;;;;;;;15.97;nan;99398.38;5076411;28;20042;-66
2022/07/18 02:01:46;;;;;;;8.88;4.50;;;;;;;16.00;nan;99399.09;5075835;28;20043;-65
2022/07/18 02:04:12;;;;;;;8.05;4.45;;;;;;;16.00;nan;99394.56;5057438;28;20074;-66
2022/07/18 02:06:37;;;;;;;10.10;4.88;;;;;;;16.03;nan;99396.91;5076375;28;20031;-66
2022/07/18 02:09:03;;;;;;;6.63;4.50;;;;;;;16.05;nan;99394.94;5076124;28;20047;-66
2022/07/18 02:11:27;;;;;;;9.63;4.22;;;;;;;16.09;nan;99395.50;5076459;28;20051;-65
2022/07/18 02:13:52;;;;;;;10.73;4.90;;;;;;;16.11;nan;99390.81;5059555;28;20050;-65
2022/07/18 02:16:17;;;;;;;9.27;4.53;;;;;;;16.11;nan;99391.66;5041556;28;20043;-66
2022/07/18 02:18:42;;;;;;;6.47;4.13;;;;;;;16.13;nan;99394.19;5076220;28;20047;-66
2022/07/18 02:21:07;;;;;;;6.45;4.43;;;;;;;16.15;nan;99394.88;5057752;28;20047;-67
2022/07/18 02:23:32;;;;;;;7.45;4.28;;;;;;;16.16;nan;99392.03;5057579;28;20043;-63
2022/07/18 02:25:56;;;;;;;7.15;4.35;;;;;;;16.18;nan;99397.25;5076138;28;20096;-62
2022/07/18 02:28:22;;;;;;;8.15;4.30;;;;;;;16.20;nan;99404.19;5075770;28;20123;-61
2022/07/18 02:30:48;;;;;;;5.75;3.88;;;;;;;16.19;nan;99402.50;5056768;28;20093;-62
2022/07/18 02:33:12;;;;;;;8.07;3.97;;;;;;;16.19;nan;99399.81;5075696;28;20138;-62
2022/07/18 02:35:37;;;;;;;5.10;3.95;;;;;;;16.20;nan;99396.13;5075545;28;20147;-61
2022/07/18 02:38:02;;;;;;;6.80;3.92;;;;;;;16.21;nan;99391.59;5075822;28;20062;-62
2022/07/18 02:40:27;;;;;;;5.47;3.75;;;;;;;16.21;nan;99392.44;5075700;28;20122;-61
2022/07/18 02:42:52;;;;;;;7.70;3.72;;;;;;;16.23;nan;99389.59;5075462;28;20118;-65
2022/07/18 02:45:17;;;;;;;4.40;3.75;;;;;;;16.25;nan;99384.94;5057292;28;20047;-65
2022/07/18 02:47:42;;;;;;;4.78;3.88;;;;;;;16.28;nan;99392.66;5075604;28;20048;-68
2022/07/18 02:50:07;;;;;;;5.60;4.00;;;;;;;16.29;nan;99387.13;5075466;28;20043;-64
2022/07/18 02:52:32;;;;;;;3.92;3.53;;;;;;;16.30;nan;99391.53;5075885;28;20053;-64
2022/07/18 02:54:57;;;;;;;4.75;3.78;;;;;;;16.34;nan;99392.06;5075759;28;20152;-64
2022/07/18 02:57:23;;;;;;;6.28;3.85;;;;;;;16.37;nan;99386.38;5075528;28;20040;-65
2022/07/18 02:59:47;;;;;;;5.55;4.07;;;;;;;16.42;nan;99389.47;5075041;28;20487;-63
2022/07/18 03:02:12;;;;;;;8.48;4.80;;;;;;;16.46;nan;99390.00;5074484;28;20112;-64
2022/07/18 03:04:37;;;;;;;6.80;4.15;;;;;;;16.51;nan;99393.06;5046406;28;20039;-63
2022/07/18 03:07:01;;;;;;;6.63;4.13;;;;;;;16.56;nan;99394.31;5062234;28;20036;-63
2022/07/18 03:09:27;;;;;;;9.68;4.40;;;;;;;16.60;nan;99401.06;5057437;28;20130;-66
2022/07/18 03:11:51;;;;;;;6.43;4.13;;;;;;;16.65;nan;99392.56;5062010;28;20040;-64
2022/07/18 03:14:16;;;;;;;9.27;4.20;;;;;;;16.68;nan;99390.44;5045506;28;20051;-64
2022/07/18 03:16:41;;;;;;;4.97;4.10;;;;;;;16.72;nan;99396.31;5028453;28;20035;-64
2022/07/18 03:19:06;;;;;;;7.25;4.07;;;;;;;16.75;nan;99397.88;5064700;28;20060;-64
2022/07/18 03:21:31;;;;;;;7.20;4.35;;;;;;;16.78;nan;99395.72;5030499;28;20027;-65
2022/07/18 03:23:56;;;;;;;5.55;4.07;;;;;;;16.80;nan;99388.34;5073637;28;20490;-66
2022/07/18 03:26:21;;;;;;;6.30;3.67;;;;;;;16.82;nan;99391.69;5073633;28;20043;-66
2022/07/18 03:28:45;;;;;;;7.43;3.75;;;;;;;16.87;nan;99389.41;5055374;28;20051;-66
2022/07/18 03:31:11;;;;;;;10.52;4.25;;;;;;;16.94;nan;99395.00;5074190;28;20501;-67
2022/07/18 03:33:36;;;;;;;10.80;3.90;;;;;;;16.99;nan;99395.38;5074642;28;20039;-66
2022/07/18 03:36:01;;;;;;;8.30;3.53;;;;;;;17.08;nan;99394.44;5074503;28;20036;-65
2022/07/18 03:38:26;;;;;;;13.32;4.50;;;;;;;17.15;nan;99394.69;5056562;28;20513;-65
2022/07/18 03:40:50;;;;;;;10.57;4.25;;;;;;;17.22;nan;99398.41;5074592;28;20108;-66
2022/07/18 03:43:15;;;;;;;8.70;5.15;;;;;;;17.29;nan;99399.47;5077355;28;20051;-65
2022/07/18 03:45:40;;;;;;;7.10;4.13;;;;;;;17.37;nan;99396.84;5060648;28;20040;-65
2022/07/18 03:48:05;;;;;;;8.80;4.00;;;;;;;17.46;nan;99398.59;5078622;28;20051;-66
2022/07/18 03:50:30;;;;;;;11.80;5.07;;;;;;;17.53;nan;99399.63;5060454;28;20084;-66
2022/07/18 03:52:55;;;;;;;10.20;5.63;;;;;;;17.60;nan;99392.59;5060503;28;20043;-66
2022/07/18 03:55:20;;;;;;;8.90;6.00;;;;;;;17.68;nan;99398.06;5078755;28;20062;-66
2022/07/18 03:57:45;;;;;;;14.05;6.15;;;;;;;17.74;nan;99397.41;5078493;28;20043;-66
2022/07/18 04:00:11;;;;;;;10.60;6.25;;;;;;;17.80;nan;99393.22;5060143;28;20044;-65
2022/07/18 04:02:39;;;;;;;12.73;6.00;;;;;;;17.87;nan;99396.13;5078387;28;20122;-65
2022/07/18 04:05:05;;;;;;;10.98;6.22;;;;;;;17.92;nan;99401.88;5078296;28;20414;-65
2022/07/18 04:07:30;;;;;;;10.40;6.25;;;;;;;18.00;nan;99405.44;5078159;28;20078;-65
2022/07/18 04:09:54;;;;;;;13.30;5.75;;;;;;;18.06;nan;99403.94;5078424;28;20070;-65
2022/07/18 04:12:19;;;;;;;9.15;4.95;;;;;;;18.09;nan;99398.22;5043724;28;20466;-65
2022/07/18 04:14:44;;;;;;;7.28;5.15;;;;;;;18.19;nan;99403.47;5079450;28;20481;-65
2022/07/18 04:17:09;;;;;;;8.95;4.70;;;;;;;18.30;nan;99395.94;5078140;28;20050;-65
2022/07/18 04:19:34;;;;;;;7.57;4.72;;;;;;;18.46;nan;99395.97;5059694;28;20062;-65
2022/07/18 04:21:59;;;;;;;10.68;5.03;;;;;;;18.58;nan;99398.38;5059624;28;20154;-64
2022/07/18 04:24:24;;;;;;;8.10;4.72;;;;;;;18.69;nan;99403.47;5078209;28;20135;-64
2022/07/18 04:26:48;;;;;;;14.77;5.47;;;;;;;18.74;nan;99401.94;5077986;28;20071;-65
2022/07/18 04:29:13;;;;;;;8.30;5.00;;;;;;;18.78;nan;99397.91;5059469;28;20067;-65
2022/07/18 04:31:38;;;;;;;9.60;6.45;;;;;;;18.79;nan;99401.44;5077009;28;20055;-65
2022/07/18 04:34:02;;;;;;;9.45;6.07;;;;;;;18.76;nan;99394.50;5077977;28;20571;-65
2022/07/18 04:36:27;;;;;;;13.38;7.38;;;;;;;18.71;nan;99404.16;5059766;28;20498;-65
2022/07/18 04:38:52;;;;;;;9.90;6.22;;;;;;;18.67;nan;99394.69;5059615;28;20043;-66
2022/07/18 04:41:19;;;;;;;13.10;6.72;;;;;;;18.65;nan;99391.28;5077419;28;20047;-65
2022/07/18 04:43:44;;;;;;;12.60;6.70;;;;;;;18.67;nan;99391.97;5077848;28;20130;-71
2022/07/18 04:46:08;;;;;;;7.97;5.65;;;;;;;18.68;nan;99394.53;5081091;28;20150;-66
2022/07/18 04:48:34;;;;;;;11.50;6.13;;;;;;;18.70;nan;99381.69;5086371;28;20050;-65
2022/07/18 04:50:58;;;;;;;15.95;6.05;;;;;;;18.72;nan;99385.09;5082942;28;20547;-65
2022/07/18 04:53:23;;;;;;;13.27;6.03;;;;;;;18.72;nan;99378.84;5058195;28;20497;-65
2022/07/18 04:55:48;;;;;;;14.60;6.57;;;;;;;18.71;nan;99377.16;5020611;28;20549;-65
2022/07/18 04:58:13;;;;;;;11.85;4.63;;;;;;;18.71;nan;99377.16;5018938;28;21019;-64
2022/07/18 05:00:38;;;;;;;9.45;4.72;;;;;;;18.74;nan;99380.34;5036709;28;20135;-64
2022/07/18 05:03:03;;;;;;;10.52;3.78;;;;;;;18.75;nan;99370.38;5036753;28;20048;-64
2022/07/18 05:05:28;;;;;;;8.18;3.70;;;;;;;18.75;nan;99383.88;5018380;28;20498;-65
2022/07/18 05:07:53;;;;;;;5.55;4.22;;;;;;;18.71;nan;99367.19;5036480;28;20499;-65
2022/07/18 05:10:20;;;;;;;7.72;4.15;;;;;;;18.74;nan;99371.38;5018395;28;20047;-64
2022/07/18 05:12:47;;;;;;;6.25;3.92;;;;;;;18.76;nan;99377.47;5036487;28;20055;-65
2022/07/18 05:15:14;;;;;;;6.13;3.40;;;;;;;18.79;nan;99377.13;5036512;28;20270;-65
2022/07/18 05:17:39;;;;;;;9.07;3.58;;;;;;;18.84;nan;99383.75;5036197;28;20094;-64
2022/07/18 05:20:07;;;;;;;4.95;3.45;;;;;;;18.90;nan;99390.31;5036044;28;20044;-65
2022/07/18 05:22:36;;;;;;;8.82;3.72;;;;;;;18.98;nan;99394.84;5036692;28;20044;-65
2022/07/18 05:25:03;;;;;;;9.82;3.58;;;;;;;19.05;nan;99401.28;5029903;28;20044;-64
2022/07/18 05:27:28;;;;;;;6.18;3.67;;;;;;;19.12;nan;99391.47;5057029;28;20047;-66
2022/07/18 05:29:53;;;;;;;10.00;3.67;;;;;;;19.21;nan;99398.56;5056247;28;20040;-64
2022/07/18 05:32:18;;;;;;;6.28;3.22;;;;;;;19.28;nan;99402.28;5055971;28;20047;-64
2022/07/18 05:34:42;;;;;;;5.03;3.10;;;;;;;19.35;nan;99402.44;5037932;28;20048;-65
2022/07/18 05:37:07;;;;;;;3.85;2.88;;;;;;;19.39;nan;99406.50;5056164;28;20477;-66
2022/07/18 05:39:32;;;;;;;5.40;3.38;;;;;;;19.36;nan;99394.16;5037897;28;20479;-65
2022/07/18 05:41:57;;;;;;;4.38;3.17;;;;;;;19.39;nan;99403.78;5056328;28;20416;-65
2022/07/18 05:45:12;;;;;;;6.22;3.28;;;;;;;19.54;nan;99396.66;5055866;28;20071;-65
2022/07/18 05:47:37;;;;;;;6.20;3.60;;;;;;;19.62;nan;99385.84;5055920;28;20055;-64
2022/07/18 05:50:03;;;;;;;5.20;3.20;;;;;;;19.77;nan;99378.69;5056156;28;20055;-65
2022/07/18 05:52:28;;;;;;;6.18;3.47;;;;;;;19.88;nan;99383.72;5056052;28;20074;-65
2022/07/18 05:54:52;;;;;;;8.02;3.47;;;;;;;20.03;nan;99375.72;5056087;28;20071;-64
2022/07/18 05:57:17;;;;;;;6.85;3.45;;;;;;;20.41;nan;99375.88;5055906;28;20054;-65
2022/07/18 05:59:42;;;;;;;13.13;3.50;;;;;;;21.32;nan;99376.69;5055665;28;20506;-64
2022/07/18 06:02:06;;;;;;;6.30;4.03;;;;;;;22.31;nan;99361.78;5037553;28;20498;-64
2022/07/18 06:04:31;;;;;;;10.63;5.28;;;;;;;23.63;nan;99362.97;5055792;28;20093;-64
2022/07/18 06:06:56;;;;;;;6.80;3.80;;;;;;;24.87;nan;99359.03;5055117;28;20047;-65
2022/07/18 06:09:21;;;;;;;9.48;4.10;;;;;;;25.97;nan;99355.56;5055212;28;20089;-65
2022/07/18 06:11:46;;;;;;;6.82;3.67;;;;;;;26.83;nan;99357.88;5055278;28;20531;-66
2022/07/18 06:14:10;;;;;;;8.20;3.60;;;;;;;27.30;nan;99351.03;5055674;28;20093;-64
2022/07/18 06:16:36;;;;;;;5.25;4.05;;;;;;;27.45;nan;99356.97;5037721;28;20545;-64
2022/07/18 06:19:01;;;;;;;6.05;3.85;;;;;;;27.69;nan;99354.44;5055219;28;20479;-65
2022/07/18 06:21:26;;;;;;;4.07;3.42;;;;;;;28.03;nan;99351.09;5054900;28;20135;-65
2022/07/18 06:23:51;;;;;;;6.78;3.75;;;;;;;28.35;nan;99349.00;5055366;28;20101;-65
2022/07/18 06:26:16;;;;;;;6.55;4.20;;;;;;;27.92;nan;99348.28;5055318;28;20516;-66
2022/07/18 06:28:41;;;;;;;8.70;4.30;;;;;;;27.08;nan;99347.00;5055115;28;20506;-66
2022/07/18 06:31:06;;;;;;;6.45;4.40;;;;;;;26.26;nan;99340.53;5054561;28;20494;-65
2022/07/18 06:33:30;;;;;;;6.80;4.50;;;;;;;25.49;nan;99340.59;5055298;28;20494;-65
2022/07/18 06:35:56;;;;;;;9.55;6.22;;;;;;;24.93;nan;99344.63;5054844;28;20044;-65
2022/07/18 06:38:21;;;;;;;8.52;5.00;;;;;;;24.50;nan;99340.50;5036890;28;20039;-65
2022/07/18 06:40:46;;;;;;;5.22;4.00;;;;;;;23.98;nan;99333.84;5054971;28;20044;-65
2022/07/18 06:43:11;;;;;;;6.60;4.22;;;;;;;23.59;nan;99325.50;5036825;28;20570;-66
2022/07/18 06:45:35;;;;;;;8.02;4.40;;;;;;;23.26;nan;99339.66;5054741;28;20471;-65
2022/07/18 06:48:01;;;;;;;9.20;4.35;;;;;;;22.97;nan;99332.56;5020010;28;20051;-65
2022/07/18 06:50:26;;;;;;;5.03;3.58;;;;;;;22.78;nan;99334.06;5055093;28;20043;-65
2022/07/18 06:52:52;;;;;;;4.10;3.75;;;;;;;22.66;nan;99338.31;5036916;28;20047;-66
2022/07/18 06:55:16;;;;;;;3.17;2.88;;;;;;;22.61;nan;99329.91;5040693;28;20035;-66
2022/07/18 06:57:42;;;;;;;4.53;3.03;;;;;;;22.61;nan;99332.59;5035164;28;20047;-67
2022/07/18 07:00:09;;;;;;;8.85;3.17;;;;;;;22.69;nan;99328.91;5016867;28;20048;-67
2022/07/18 07:02:33;;;;;;;6.78;3.15;;;;;;;22.78;nan;99334.06;5035147;28;20068;-68
2022/07/18 07:04:58;;;;;;;4.22;3.05;;;;;;;22.87;nan;99334.78;5016986;28;20083;-67
2022/07/18 07:07:24;;;;;;;5.00;3.50;;;;;;;22.95;nan;99333.78;5033117;28;20044;-66
2022/07/18 07:09:49;;;;;;;4.32;3.47;;;;;;;22.84;nan;99337.03;5034558;28;20043;-65
2022/07/18 07:12:13;;;;;;;5.80;3.67;;;;;;;22.72;nan;99334.81;5016855;28;20052;-67
2022/07/18 07:14:38;;;;;;;10.48;4.05;;;;;;;22.71;nan;99333.13;5034385;28;20048;-65
2022/07/18 07:17:03;;;;;;;3.58;3.17;;;;;;;22.76;nan;99343.44;5034155;28;20048;-65
2022/07/18 07:19:28;;;;;;;7.28;3.58;;;;;;;22.88;nan;99332.91;5029354;28;20175;-66
2022/07/18 07:21:53;;;;;;;8.95;3.40;;;;;;;23.08;nan;99333.88;5014624;28;20126;-65
2022/07/18 07:24:18;;;;;;;5.63;3.03;;;;;;;23.32;nan;99319.00;5018590;28;20078;-66
2022/07/18 07:26:43;;;;;;;9.48;4.03;;;;;;;23.57;nan;99327.56;5034209;28;20109;-65
2022/07/18 07:29:07;;;;;;;6.35;4.05;;;;;;;23.79;nan;99330.00;5034235;28;20047;-65
2022/07/18 07:31:32;;;;;;;6.72;3.97;;;;;;;24.34;nan;99325.41;5034340;28;20055;-65
2022/07/18 07:33:57;;;;;;;5.53;3.20;;;;;;;24.91;nan;99333.03;5034680;28;20399;-65
2022/07/18 07:36:21;;;;;;;6.15;3.80;;;;;;;24.96;nan;99333.25;5034142;28;20495;-65
2022/07/18 07:38:46;;;;;;;5.35;3.65;;;;;;;24.94;nan;99331.81;5034500;28;20125;-65
2022/07/18 07:41:13;;;;;;;7.13;3.70;;;;;;;24.91;nan;99333.03;5033846;28;20040;-67
2022/07/18 07:43:38;;;;;;;7.05;4.22;;;;;;;24.90;nan;99336.81;5034794;28;20051;-67
2022/07/18 07:46:03;;;;;;;6.43;3.63;;;;;;;24.87;nan;99337.22;5033653;28;20048;-68
2022/07/18 07:48:27;;;;;;;7.95;4.30;;;;;;;24.76;nan;99331.53;5033911;28;20161;-66
2022/07/18 07:50:52;;;;;;;17.88;5.72;;;;;;;24.61;nan;99327.13;5034158;28;20507;-64
2022/07/18 07:53:17;;;;;;;9.52;4.32;;;;;;;24.48;nan;99324.41;5034125;28;20036;-64
2022/07/18 07:55:42;;;;;;;6.13;4.22;;;;;;;24.30;nan;99320.56;5032902;28;20075;-64
2022/07/18 07:58:06;;;;;;;6.65;4.32;;;;;;;24.35;nan;99318.06;5016480;28;20062;-65
2022/07/18 08:00:32;;;;;;;6.05;3.97;;;;;;;24.69;nan;99312.47;5033175;28;20135;-64
2022/07/18 08:03:00;;;;;;;7.50;4.10;;;;;;;25.07;nan;99309.13;5034188;28;20102;-67
2022/07/18 08:05:27;;;;;;;7.00;4.13;;;;;;;25.36;nan;99313.31;5016309;28;20051;-66
2022/07/18 08:07:52;;;;;;;7.47;4.20;;;;;;;25.57;nan;99311.16;5034947;28;20044;-65
2022/07/18 08:10:18;;;;;;;8.35;4.15;;;;;;;25.67;nan;99305.28;5034093;28;20090;-63
2022/07/18 08:12:42;;;;;;;10.70;5.22;;;;;;;25.60;nan;99296.25;5017249;28;20036;-63
2022/07/18 08:15:08;;;;;;;6.47;4.50;;;;;;;25.50;nan;99293.97;5032546;28;20367;-64
2022/07/18 08:17:33;;;;;;;8.10;4.43;;;;;;;25.43;nan;99287.66;5015354;28;20045;-64
2022/07/18 08:19:59;;;;;;;7.38;4.00;;;;;;;25.11;nan;99289.41;5018955;28;20063;-63
2022/07/18 08:22:23;;;;;;;7.65;4.32;;;;;;;24.91;nan;99294.84;5036817;28;20041;-65
2022/07/18 08:24:48;;;;;;;9.32;4.22;;;;;;;24.76;nan;99296.09;5036058;28;20051;-66
2022/07/18 08:27:13;;;;;;;6.78;4.68;;;;;;;24.61;nan;99288.13;5035462;28;20094;-66
2022/07/18 08:29:38;;;;;;;8.52;4.47;;;;;;;24.43;nan;99280.56;5035170;28;20051;-66
2022/07/18 08:32:03;;;;;;;7.18;4.22;;;;;;;24.26;nan;99275.72;5038451;28;20052;-66
2022/07/18 08:34:28;;;;;;;8.05;4.72;;;;;;;24.07;nan;99286.31;5038089;28;20044;-68
2022/07/18 08:36:53;;;;;;;11.15;4.35;;;;;;;23.89;nan;99273.28;4988581;28;20097;-66
2022/07/18 08:39:17;;;;;;;11.98;4.20;;;;;;;23.73;nan;99273.63;5038953;28;20041;-65
2022/07/18 08:41:46;;;;;;;14.05;5.25;;;;;;;23.59;nan;99281.94;5021479;28;20546;-66
2022/07/18 08:44:11;;;;;;;8.45;5.40;;;;;;;23.39;nan;99268.19;5038332;28;20040;-65
2022/07/18 08:46:38;;;;;;;11.52;4.90;;;;;;;23.20;nan;99269.75;5019054;28;20041;-68
2022/07/18 08:49:03;;;;;;;6.75;4.68;;;;;;;23.01;nan;99265.03;5037285;28;20052;-65
2022/07/18 08:51:28;;;;;;;30.33;8.65;;;;;;;22.85;nan;99276.19;5036666;28;20047;-65
2022/07/18 08:53:55;;;;;;;7.88;5.03;;;;;;;22.73;nan;99273.97;5036861;28;20056;-64
2022/07/18 08:56:21;;;;;;;9.40;4.30;;;;;;;22.61;nan;99263.84;5037064;28;20037;-65
2022/07/18 08:58:45;;;;;;;8.55;4.40;;;;;;;22.52;nan;99271.28;5019052;28;20047;-64
2022/07/18 09:01:10;;;;;;;12.18;5.60;;;;;;;22.41;nan;99266.38;5034081;28;20036;-66
2022/07/18 09:03:35;;;;;;;11.30;5.03;;;;;;;22.27;nan;99262.69;5056609;28;20044;-65
2022/07/18 09:06:07;;;;;;;8.63;4.53;;;;;;;22.23;nan;99264.13;5056616;28;20044;-64
2022/07/18 09:08:33;;;;;;;8.88;4.30;;;;;;;22.09;nan;99263.16;5056776;28;20052;-65
2022/07/18 09:10:59;;;;;;;7.70;5.13;;;;;;;21.96;nan;99268.41;5056556;28;20044;-65
2022/07/18 09:13:35;;;;;;;7.88;4.90;;;;;;;21.87;nan;99257.84;5038328;28;20047;-65
2022/07/18 09:16:10;;;;;;;12.40;4.78;;;;;;;21.81;nan;99264.03;5021407;28;20038;-64
2022/07/18 09:18:39;;;;;;;9.32;5.50;;;;;;;21.68;nan;99270.13;5057217;28;20189;-64
2022/07/18 09:21:20;;;;;;;8.80;4.95;;;;;;;21.66;nan;99264.06;5056656;28;20052;-65
2022/07/18 09:23:50;;;;;;;7.20;4.82;;;;;;;21.60;nan;99267.53;5056514;28;20108;-65
2022/07/18 09:26:34;;;;;;;9.13;5.55;;;;;;;21.69;nan;99264.50;5021501;28;20036;-65
2022/07/18 09:28:59;;;;;;;8.13;4.40;;;;;;;21.59;nan;99266.69;5039847;28;20060;-64
2022/07/18 09:31:27;;;;;;;9.65;5.60;;;;;;;21.55;nan;99256.41;5056816;28;20078;-64
2022/07/18 09:33:57;;;;;;;9.45;5.28;;;;;;;21.55;nan;99262.69;5056348;28;20044;-65
2022/07/18 09:36:22;;;;;;;9.77;5.25;;;;;;;21.51;nan;99258.66;5055801;28;20040;-67
2022/07/18 09:38:47;;;;;;;10.05;5.82;;;;;;;21.52;nan;99262.22;5055854;28;20043;-64
2022/07/18 09:41:12;;;;;;;9.55;5.13;;;;;;;21.56;nan;99245.34;5055904;28;20048;-65
2022/07/18 09:43:38;;;;;;;8.60;4.70;;;;;;;21.70;nan;99246.38;5056119;28;20047;-64
2022/07/18 09:46:04;;;;;;;6.53;4.40;;;;;;;21.93;nan;99240.78;5037979;28;20044;-66
2022/07/18 09:48:29;;;;;;;6.97;3.78;;;;;;;22.42;nan;99240.91;5055846;28;20043;-66
2022/07/18 09:50:58;;;;;;;7.25;4.00;;;;;;;23.10;nan;99231.22;5056006;28;20055;-66
2022/07/18 09:53:26;;;;;;;6.50;4.43;;;;;;;23.67;nan;99235.50;5055915;28;20093;-66
2022/07/18 09:55:53;;;;;;;7.43;4.50;;;;;;;24.16;nan;99229.75;5057763;28;20126;-63
2022/07/18 09:58:24;;;;;;;7.38;4.15;;;;;;;25.41;nan;99239.81;5040116;28;20028;-64
2022/07/18 10:00:49;;;;;;;7.90;4.70;;;;;;;28.49;nan;99224.34;5039709;28;20059;-64
2022/07/18 10:03:15;;;;;;;7.10;4.97;;;;;;;32.22;nan;99237.28;5039504;28;20055;-62
2022/07/18 10:05:42;;;;;;;12.07;4.60;;;;;;;35.09;nan;99238.19;5039606;28;20624;-63
2022/07/18 10:08:12;;;;;;;9.98;5.45;;;;;;;35.92;nan;99241.28;5006995;28;20399;-64
2022/07/18 10:10:38;;;;;;;8.10;5.45;;;;;;;35.29;nan;99243.72;5040105;28;20042;-64
2022/07/18 10:13:04;;;;;;;8.45;5.28;;;;;;;34.74;nan;99234.28;5058724;28;20089;-64
2022/07/18 10:15:33;;;;;;;7.65;5.00;;;;;;;34.80;nan;99238.75;5058575;28;20067;-65
2022/07/18 10:17:59;;;;;;;8.45;6.10;;;;;;;34.63;nan;99229.88;5058370;28;20051;-65
2022/07/18 10:20:34;;;;;;;8.73;5.13;;;;;;;34.03;nan;99231.41;5056666;28;20144;-68
2022/07/18 10:23:06;;;;;;;6.97;4.68;;;;;;;33.16;nan;99229.28;5056354;28;20048;-66
2022/07/18 10:25:31;;;;;;;10.32;4.88;;;;;;;32.72;nan;99226.78;5038950;28;20040;-65
2022/07/18 10:28:08;;;;;;;6.45;5.45;;;;;;;33.34;nan;99228.03;5056791;28;20044;-66
2022/07/18 10:30:39;;;;;;;5.43;4.57;;;;;;;32.69;nan;99223.66;5055478;28;20058;-65
2022/07/18 10:33:40;;;;;;;5.82;4.43;;;;;;;31.86;nan;99213.97;5037096;28;20062;-65
2022/07/18 10:36:07;;;;;;;7.65;4.65;;;;;;;30.34;nan;99209.75;5054917;28;20043;-63
2022/07/18 10:38:33;;;;;;;5.70;4.30;;;;;;;29.40;nan;99206.53;5055071;28;20044;-65
2022/07/18 10:41:05;;;;;;;5.05;4.00;;;;;;;28.71;nan;99201.84;5055328;28;20036;-66
2022/07/18 10:43:30;;;;;;;4.45;3.70;;;;;;;27.94;nan;99196.28;5055095;28;20130;-65
2022/07/18 10:45:55;;;;;;;5.63;3.72;;;;;;;27.34;nan;99192.59;5055059;28;20178;-66
2022/07/18 10:48:32;;;;;;;6.57;4.03;;;;;;;26.96;nan;99193.69;5054367;28;20051;-65
2022/07/18 10:51:00;;;;;;;5.22;3.85;;;;;;;26.38;nan;99193.13;5055277;28;20119;-66
2022/07/18 10:53:54;;;;;;;8.90;4.35;;;;;;;26.15;nan;99190.09;5054475;28;20067;-67
2022/07/18 10:56:27;;;;;;;6.30;4.95;;;;;;;25.58;nan;99187.25;5056217;28;20556;-67
2022/07/18 10:58:54;;;;;;;5.03;3.72;;;;;;;25.22;nan;99195.16;5038961;28;20040;-68
2022/07/18 11:01:20;;;;;;;6.70;4.93;;;;;;;24.77;nan;99192.28;5056056;28;20031;-67
2022/07/18 11:03:45;;;;;;;8.10;5.18;;;;;;;24.41;nan;99194.63;5056140;28;20563;-68
2022/07/18 11:06:10;;;;;;;4.32;3.78;;;;;;;24.09;nan;99197.06;5037120;28;20510;-66
2022/07/18 11:08:35;;;;;;;5.93;3.88;;;;;;;23.78;nan;99183.19;5055133;28;20078;-65
2022/07/18 11:11:02;;;;;;;6.97;3.50;;;;;;;23.51;nan;99185.81;5055800;28;20532;-65
2022/07/18 11:13:35;;;;;;;5.95;3.88;;;;;;;23.29;nan;99181.50;5036207;28;20050;-67
2022/07/18 11:16:15;;;;;;;7.82;4.45;;;;;;;23.11;nan;99183.94;5054701;28;20502;-66
2022/07/18 11:18:43;;;;;;;9.13;4.68;;;;;;;22.99;nan;99172.78;5054964;28;20143;-65
2022/07/18 11:21:18;;;;;;;9.32;4.25;;;;;;;22.92;nan;99176.50;5054039;28;20047;-66
2022/07/18 11:23:46;;;;;;;5.70;3.58;;;;;;;22.76;nan;99180.38;5054460;28;20046;-65
2022/07/18 11:26:15;;;;;;;6.18;3.97;;;;;;;22.67;nan;99179.69;5054814;28;20395;-64
2022/07/18 11:28:41;;;;;;;9.48;6.18;;;;;;;22.51;nan;99171.81;5054368;28;20043;-65
2022/07/18 11:31:08;;;;;;;19.90;11.25;;;;;;;22.49;nan;99173.03;5036617;28;20616;-66
2022/07/18 11:33:36;;;;;;;14.45;6.90;;;;;;;22.48;nan;99176.78;5054768;28;20100;-66
2022/07/18 11:36:07;;;;;;;7.55;5.20;;;;;;;22.49;nan;99173.03;5036531;28;20384;-66
2022/07/18 11:38:32;;;;;;;8.73;4.57;;;;;;;22.42;nan;99164.84;5036416;28;20067;-67
2022/07/18 11:40:57;;;;;;;197.52;72.00;;;;;;;22.41;nan;99165.88;5035835;28;20445;-67
2022/07/18 11:43:24;;;;;;;70.45;27.02;;;;;;;22.40;nan;99167.75;5054502;28;20424;-63
2022/07/18 11:46:05;;;;;;;15.18;6.72;;;;;;;22.45;nan;99165.31;5036292;28;20537;-65